createdAt,value
2019-04-27T00:04:40.705Z,3.05
2019-04-27T00:09:50.198Z,2.60
2019-04-27T00:14:52.988Z,3.02
2019-04-27T00:19:58.048Z,2.87
2019-04-27T00:25:03.334Z,2.77
2019-04-27T00:30:07.220Z,3.47
2019-04-27T00:35:13.739Z,3.33
2019-04-27T00:40:23.460Z,2.90
2019-04-27T00:45:27.122Z,3.33
2019-04-27T00:50:30.560Z,2.92
2019-04-27T00:55:35.629Z,2.92
2019-04-27T01:00:46.457Z,2.98
2019-04-27T01:05:50.024Z,2.72
2019-04-27T01:10:53.858Z,2.98
2019-04-27T01:15:57.563Z,3.40
2019-04-27T01:21:01.244Z,3.98
2019-04-27T01:26:06.637Z,3.37
2019-04-27T01:31:11.775Z,3.60
2019-04-27T01:36:15.203Z,3.85
2019-04-27T01:41:19.150Z,3.25
2019-04-27T01:46:23.076Z,3.42
2019-04-27T01:51:26.503Z,3.65
2019-04-27T01:56:29.934Z,3.90
2019-04-27T02:01:38.957Z,3.95
2019-04-27T02:06:42.767Z,3.55
2019-04-27T02:11:46.205Z,4.87
2019-04-27T02:16:49.615Z,3.90
2019-04-27T02:21:53.133Z,4.58
2019-04-27T02:26:56.565Z,4.67
2019-04-27T02:32:10.882Z,4.65
2019-04-27T02:37:14.648Z,4.20
2019-04-27T02:42:20.072Z,4.78
2019-04-27T02:47:23.686Z,6.08
2019-04-27T02:52:30.123Z,5.08
2019-04-27T02:57:33.755Z,4.00
2019-04-27T03:02:40.194Z,4.42
2019-04-27T03:07:43.893Z,4.90
2019-04-27T03:12:50.004Z,3.67
2019-04-27T03:18:10.164Z,3.95
2019-04-27T03:23:14.204Z,4.60
2019-04-27T03:28:20.049Z,5.10
2019-04-27T03:33:22.975Z,5.03
2019-04-27T03:38:26.822Z,4.75
2019-04-27T03:43:30.407Z,5.87
2019-04-27T03:48:33.856Z,5.47
2019-04-27T03:53:39.703Z,4.83
2019-04-27T03:58:52.002Z,4.40
2019-04-27T04:03:55.581Z,5.10
2019-04-27T04:09:00.194Z,4.92
2019-04-27T04:14:05.688Z,4.35
2019-04-27T04:19:10.583Z,4.53
2019-04-27T04:24:14.014Z,5.05
2019-04-27T04:29:20.087Z,3.40
2019-04-27T04:34:23.094Z,2.98
2019-04-27T04:39:26.786Z,3.02
2019-04-27T04:44:41.081Z,3.15
2019-04-27T04:49:44.516Z,2.90
2019-04-27T04:54:49.529Z,3.47
2019-04-27T04:59:53.198Z,3.33
2019-04-27T05:04:56.657Z,3.40
2019-04-27T05:10:00.091Z,3.40
2019-04-27T05:15:04.358Z,3.30
2019-04-27T05:20:24.686Z,3.27
2019-04-27T05:25:28.598Z,3.25
2019-04-27T05:30:32.262Z,3.10
2019-04-27T05:35:35.701Z,3.60
2019-04-27T05:40:39.822Z,2.95
2019-04-27T05:46:29.779Z,3.37
2019-04-27T05:51:36.932Z,3.50
2019-04-27T05:56:36.130Z,3.25
2019-04-27T06:01:39.557Z,3.00
2019-04-27T06:06:42.989Z,3.20
2019-04-27T06:11:46.413Z,2.85
2019-04-27T06:16:51.398Z,3.20
2019-04-27T06:21:55.375Z,3.25
2019-04-27T06:26:59.687Z,3.77
2019-04-27T06:32:03.250Z,3.05
2019-04-27T06:37:06.662Z,2.65
2019-04-27T06:42:18.546Z,3.20
2019-04-27T06:47:15.493Z,3.42
2019-04-27T06:52:18.921Z,3.40
2019-04-27T06:57:22.350Z,3.20
2019-04-27T07:02:25.777Z,3.62
2019-04-27T07:07:29.604Z,3.20
2019-04-27T07:12:33.333Z,3.77
2019-04-27T07:17:36.753Z,4.30
2019-04-27T07:22:40.171Z,4.17
2019-04-27T07:27:43.864Z,4.08
2019-04-27T07:32:48.813Z,4.92
2019-04-27T07:37:52.653Z,4.95
2019-04-27T07:42:59.356Z,5.70
2019-04-27T07:48:03.256Z,6.08
2019-04-27T07:53:08.570Z,6.70
2019-04-27T07:58:12.206Z,7.12
2019-04-27T08:03:15.645Z,7.50
2019-04-27T08:08:19.131Z,8.28
2019-04-27T08:13:22.579Z,9.58
2019-04-27T08:18:26.161Z,7.83
2019-04-27T08:23:31.139Z,8.20
2019-04-27T08:28:36.276Z,8.80
2019-04-27T08:33:39.702Z,8.80
2019-04-27T08:38:43.128Z,9.80
2019-04-27T08:43:46.566Z,8.63
2019-04-27T08:48:49.996Z,9.55
2019-04-27T08:53:53.396Z,7.22
2019-04-27T08:58:57.074Z,6.70
2019-04-27T09:04:00.501Z,5.62
2019-04-27T09:09:09.470Z,4.40
2019-04-27T09:14:23.607Z,3.52
2019-04-27T09:19:31.840Z,3.30
2019-04-27T09:24:35.360Z,2.50
2019-04-27T09:29:39.482Z,1.90
2019-04-27T09:34:43.416Z,2.12
2019-04-27T09:39:47.186Z,1.98
2019-04-27T09:44:50.870Z,1.85
2019-04-27T09:49:54.289Z,1.20
2019-04-27T09:54:57.718Z,1.32
2019-04-27T10:00:01.141Z,1.40
2019-04-27T10:05:06.124Z,1.20
2019-04-27T10:10:10.188Z,1.12
2019-04-27T10:15:14.202Z,1.10
2019-04-27T10:20:17.628Z,0.83
2019-04-27T10:25:22.702Z,0.82
2019-04-27T10:30:26.724Z,0.80
2019-04-27T10:35:30.414Z,1.10
2019-04-27T10:40:34.044Z,1.50
2019-04-27T10:45:38.013Z,1.80
2019-04-27T10:50:41.929Z,1.65
2019-04-27T10:55:46.425Z,2.25
2019-04-27T11:00:58.481Z,2.45
2019-04-27T11:06:05.758Z,2.05
2019-04-27T11:11:09.545Z,2.55
2019-04-27T11:16:13.007Z,2.65
2019-04-27T11:21:16.524Z,2.55
2019-04-27T11:26:19.964Z,2.75
2019-04-27T11:31:23.426Z,2.55
2019-04-27T11:36:28.579Z,2.35
2019-04-27T11:41:32.292Z,2.30
2019-04-27T11:46:35.742Z,2.25
2019-04-27T11:51:39.370Z,1.98
2019-04-27T11:56:42.822Z,2.20
2019-04-27T12:01:46.498Z,2.20
2019-04-27T12:06:50.186Z,1.90
2019-04-27T12:11:57.460Z,2.10
2019-04-27T12:16:59.903Z,1.72
2019-04-27T12:22:03.586Z,2.58
2019-04-27T12:27:08.649Z,1.50
2019-04-27T12:32:12.160Z,1.55
2019-04-27T12:37:15.788Z,1.30
2019-04-27T12:42:21.094Z,1.10
2019-04-27T12:47:26.316Z,0.88
2019-04-27T12:52:29.937Z,0.80
2019-04-27T12:57:36.427Z,0.85
2019-04-27T13:02:40.238Z,0.90
2019-04-27T13:07:43.931Z,0.90
2019-04-27T13:12:47.446Z,1.00
2019-04-27T13:17:51.161Z,1.20
2019-04-27T13:22:54.850Z,1.22
2019-04-27T13:27:58.293Z,1.82
2019-04-27T13:33:01.728Z,1.22
2019-04-27T13:38:05.406Z,1.20
2019-04-27T13:43:25.970Z,2.05
2019-04-27T13:48:31.105Z,2.27
2019-04-27T13:53:36.642Z,2.22
2019-04-27T13:58:40.206Z,1.80
2019-04-27T14:03:45.181Z,1.75
2019-04-27T14:08:48.738Z,1.92
2019-04-27T14:13:52.176Z,1.62
2019-04-27T14:18:55.692Z,1.52
2019-04-27T14:23:59.371Z,1.65
2019-04-27T14:29:03.156Z,1.50
2019-04-27T14:34:06.597Z,1.67
2019-04-27T14:39:11.692Z,1.25
2019-04-27T14:44:15.131Z,1.10
2019-04-27T14:49:19.908Z,1.10
2019-04-27T14:54:23.857Z,0.60
2019-04-27T14:59:27.309Z,0.90
2019-04-27T15:04:31.776Z,0.70
2019-04-27T15:09:36.415Z,0.78
2019-04-27T15:14:39.891Z,1.62
2019-04-27T15:19:48.368Z,1.10
2019-04-27T15:30:59.548Z,0.95
2019-04-27T15:36:14.629Z,0.90
2019-04-27T15:41:19.476Z,1.00
2019-04-27T15:46:23.402Z,1.20
2019-04-27T15:51:28.320Z,1.17
2019-04-27T15:56:35.285Z,1.20
2019-04-27T16:01:39.505Z,1.62
2019-04-27T16:06:47.668Z,1.42
2019-04-27T16:11:57.706Z,1.25
2019-04-27T16:16:53.170Z,1.60
2019-04-27T16:21:58.979Z,1.60
2019-04-27T16:27:02.257Z,1.77
2019-04-27T16:32:09.651Z,1.50
2019-04-27T16:37:13.907Z,1.30
2019-04-27T16:42:18.628Z,1.60
2019-04-27T16:47:24.576Z,2.02
2019-04-27T16:52:29.694Z,1.40
2019-04-27T16:57:37.454Z,1.75
2019-04-27T17:02:40.247Z,1.82
2019-04-27T17:07:44.141Z,2.00
2019-04-27T17:12:48.689Z,2.12
2019-04-27T17:17:58.936Z,2.00
2019-04-27T17:23:02.625Z,2.17
2019-04-27T17:28:08.021Z,2.40
2019-04-27T17:33:44.604Z,2.12
2019-04-27T17:39:08.686Z,1.87
2019-04-27T17:44:19.200Z,2.62
2019-04-27T17:49:18.927Z,2.12
2019-04-27T17:54:22.716Z,1.98
2019-04-27T17:59:26.130Z,2.30
2019-04-27T18:04:32.981Z,2.15
2019-04-27T18:09:39.993Z,1.65
2019-04-27T18:14:41.283Z,1.82
2019-04-27T18:19:46.651Z,2.10
2019-04-27T18:25:03.399Z,2.77
2019-04-27T18:30:21.706Z,2.30
2019-04-27T18:35:32.365Z,2.70
2019-04-27T18:40:35.823Z,2.45
2019-04-27T18:45:44.710Z,2.17
2019-04-27T18:50:52.377Z,2.62
2019-04-27T18:56:10.439Z,2.70
2019-04-27T19:01:13.284Z,2.87
2019-04-27T19:06:18.785Z,3.72
2019-04-27T19:11:23.658Z,3.20
2019-04-27T19:21:31.065Z,4.03
2019-04-27T19:31:43.585Z,3.65
2019-04-27T19:36:48.869Z,4.35
2019-04-27T19:42:00.261Z,3.92
2019-04-27T19:47:00.001Z,8.83
2019-04-27T19:52:05.153Z,7.25
2019-04-27T19:57:31.183Z,6.72
2019-04-27T20:08:21.988Z,4.47
2019-04-27T20:13:25.665Z,3.75
2019-04-27T20:18:29.259Z,3.47
2019-04-27T20:23:32.780Z,3.83
2019-04-27T20:28:38.471Z,2.75
2019-04-27T20:33:41.655Z,3.20
2019-04-27T20:38:45.248Z,4.30
2019-04-27T20:43:50.909Z,3.27
2019-04-27T20:48:54.413Z,3.30
2019-04-27T20:54:01.675Z,3.17
2019-04-27T20:59:06.150Z,2.80
2019-04-27T21:09:17.620Z,3.65
2019-04-27T21:14:21.785Z,3.98
2019-04-27T21:19:25.397Z,3.90
2019-04-27T21:24:30.775Z,3.42
2019-04-27T21:29:34.234Z,3.33
2019-04-27T21:34:37.687Z,3.50
2019-04-27T21:39:41.351Z,3.30
2019-04-27T21:44:44.781Z,3.83
2019-04-27T21:49:48.504Z,3.65
2019-04-27T21:54:53.061Z,4.08
2019-04-27T21:59:56.507Z,2.95
2019-04-27T22:04:59.942Z,3.85
2019-04-27T22:10:04.777Z,3.45
2019-04-27T22:15:08.338Z,3.58
2019-04-27T22:20:12.353Z,2.75
2019-04-27T22:25:15.868Z,2.70
2019-04-27T22:30:20.974Z,3.20
2019-04-27T22:35:24.767Z,3.45
2019-04-27T22:40:46.606Z,3.62
2019-04-27T22:45:51.067Z,3.58
2019-04-27T22:50:54.556Z,3.35
2019-04-27T22:56:16.109Z,3.45
2019-04-27T23:01:36.513Z,3.40
2019-04-27T23:06:41.739Z,3.37
2019-04-27T23:11:45.417Z,2.92
2019-04-27T23:17:03.145Z,3.30
2019-04-27T23:22:06.831Z,3.25
2019-04-27T23:27:11.474Z,2.72
2019-04-27T23:37:28.659Z,3.92
2019-04-27T23:42:32.094Z,3.10
2019-04-27T23:47:35.721Z,2.90
2019-04-27T23:52:58.724Z,2.92
2019-04-27T23:58:02.529Z,3.40
